createdAt,value
2022-10-01T00:01:15.672Z,3.80
2022-10-01T00:03:43.413Z,7.17
2022-10-01T00:06:12.763Z,5.97
2022-10-01T00:08:41.616Z,7.57
2022-10-01T00:11:14.233Z,4.43
2022-10-01T00:13:46.101Z,3.83
2022-10-01T00:16:16.735Z,6.07
2022-10-01T00:18:45.650Z,4.20
2022-10-01T00:21:15.063Z,6.23
2022-10-01T00:23:47.187Z,3.10
2022-10-01T00:26:20.833Z,4.17
2022-10-01T00:28:52.470Z,4.23
2022-10-01T00:31:19.160Z,4.20
2022-10-01T00:33:45.747Z,3.57
2022-10-01T00:36:12.392Z,3.33
2022-10-01T00:38:47.895Z,4.57
2022-10-01T00:41:18.376Z,5.43
2022-10-01T00:43:55.211Z,3.77
2022-10-01T00:46:39.289Z,7.27
2022-10-01T00:49:18.912Z,6.27
2022-10-01T00:51:52.465Z,3.87
2022-10-01T00:54:34.499Z,5.43
2022-10-01T00:57:02.903Z,3.20
2022-10-01T00:59:30.493Z,3.73
2022-10-01T01:01:57.288Z,4.17
2022-10-01T01:04:23.922Z,4.13
2022-10-01T01:06:57.410Z,4.10
2022-10-01T01:09:30.911Z,3.60
2022-10-01T01:12:10.778Z,5.83
2022-10-01T01:14:54.888Z,5.67
2022-10-01T01:17:46.559Z,3.70
2022-10-01T01:20:29.145Z,4.80
2022-10-01T01:23:15.184Z,4.03
2022-10-01T01:25:47.646Z,5.97
2022-10-01T01:28:31.610Z,3.97
2022-10-01T01:31:03.898Z,4.60
2022-10-01T01:33:34.191Z,8.13
2022-10-01T01:36:16.275Z,4.90
2022-10-01T01:38:56.977Z,4.43
2022-10-01T01:41:29.564Z,4.30
2022-10-01T01:44:00.589Z,4.17
2022-10-01T01:46:33.162Z,6.03
2022-10-01T01:49:02.726Z,5.17
2022-10-01T01:51:36.636Z,3.90
2022-10-01T01:54:03.537Z,4.10
2022-10-01T01:56:31.543Z,3.40
2022-10-01T01:59:00.951Z,4.57
2022-10-01T02:01:39.375Z,3.53
2022-10-01T02:04:26.437Z,3.17
2022-10-01T02:07:27.846Z,4.47
2022-10-01T02:10:04.946Z,3.00
2022-10-01T02:13:01.554Z,4.53
2022-10-01T02:15:35.127Z,6.23
2022-10-01T02:18:30.132Z,4.10
2022-10-01T02:21:10.352Z,3.43
2022-10-01T02:23:58.062Z,5.33
2022-10-01T02:26:28.162Z,3.27
2022-10-01T02:28:57.549Z,5.17
2022-10-01T02:31:24.246Z,3.90
2022-10-01T02:33:53.399Z,4.17
2022-10-01T02:36:21.340Z,5.37
2022-10-01T02:38:50.686Z,2.70
2022-10-01T02:41:23.145Z,4.60
2022-10-01T02:44:05.597Z,4.47
2022-10-01T02:46:37.006Z,3.50
2022-10-01T02:49:04.367Z,4.37
2022-10-01T02:51:37.754Z,4.17
2022-10-01T02:54:24.169Z,3.33
2022-10-01T02:57:09.941Z,5.43
2022-10-01T02:59:36.604Z,4.03
2022-10-01T03:02:03.645Z,4.27
2022-10-01T03:04:30.381Z,5.00
2022-10-01T03:07:03.302Z,5.27
2022-10-01T03:09:34.494Z,3.93
2022-10-01T03:12:01.796Z,4.83
2022-10-01T03:14:28.908Z,3.27
2022-10-01T03:16:55.537Z,3.40
2022-10-01T03:19:22.150Z,4.30
2022-10-01T03:21:48.813Z,5.10
2022-10-01T03:24:15.483Z,6.03
2022-10-01T03:26:42.135Z,6.27
2022-10-01T03:29:09.562Z,4.97
2022-10-01T03:31:38.062Z,5.97
2022-10-01T03:34:04.994Z,6.57
2022-10-01T03:36:31.724Z,4.67
2022-10-01T03:38:58.324Z,4.30
2022-10-01T03:41:25.172Z,5.90
2022-10-01T03:43:51.949Z,4.53
2022-10-01T03:46:18.571Z,5.10
2022-10-01T03:48:45.152Z,3.33
2022-10-01T03:51:15.556Z,4.53
2022-10-01T03:53:44.395Z,3.23
2022-10-01T03:56:10.977Z,3.40
2022-10-01T03:58:37.576Z,3.13
2022-10-01T04:01:04.232Z,3.80
2022-10-01T04:03:31.324Z,4.07
2022-10-01T04:05:58.176Z,2.67
2022-10-01T04:08:25.014Z,3.73
2022-10-01T04:10:51.656Z,4.13
2022-10-01T04:13:18.273Z,4.37
2022-10-01T04:15:45.030Z,5.67
2022-10-01T04:18:12.113Z,3.97
2022-10-01T04:20:39.055Z,4.20
2022-10-01T04:23:05.802Z,3.83
2022-10-01T04:25:32.386Z,4.27
2022-10-01T04:28:03.479Z,3.87
2022-10-01T04:30:33.490Z,3.07
2022-10-01T04:33:00.263Z,5.43
2022-10-01T04:35:27.991Z,4.67
2022-10-01T04:38:01.835Z,5.77
2022-10-01T04:40:29.418Z,4.97
2022-10-01T04:42:56.538Z,4.93
2022-10-01T04:45:23.524Z,3.53
2022-10-01T04:47:52.010Z,3.73
2022-10-01T04:50:19.805Z,3.70
2022-10-01T04:52:49.760Z,4.27
2022-10-01T04:55:17.674Z,5.20
2022-10-01T04:57:44.599Z,3.53
2022-10-01T05:00:14.265Z,3.37
2022-10-01T05:02:44.049Z,4.67
2022-10-01T05:05:10.631Z,3.57
2022-10-01T05:07:39.728Z,4.80
2022-10-01T05:10:11.955Z,4.67
2022-10-01T05:12:38.597Z,3.43
2022-10-01T05:15:05.799Z,2.87
2022-10-01T05:17:33.921Z,4.97
2022-10-01T05:20:01.917Z,4.10
2022-10-01T05:22:28.674Z,5.07
2022-10-01T05:24:55.238Z,5.50
2022-10-01T05:27:21.896Z,3.63
2022-10-01T05:29:48.911Z,5.00
2022-10-01T05:32:15.609Z,5.13
2022-10-01T05:34:42.225Z,4.27
2022-10-01T05:37:09.062Z,3.00
2022-10-01T05:39:35.631Z,4.80
2022-10-01T05:42:06.483Z,4.33
2022-10-01T05:44:38.070Z,3.37
2022-10-01T05:47:07.932Z,4.37
2022-10-01T05:49:34.517Z,5.33
2022-10-01T05:52:01.440Z,3.00
2022-10-01T05:54:29.482Z,2.90
2022-10-01T05:56:57.019Z,3.50
2022-10-01T05:59:28.477Z,3.70
2022-10-01T06:01:57.952Z,3.67
2022-10-01T06:04:24.657Z,5.87
2022-10-01T06:06:51.295Z,3.07
2022-10-01T06:09:18.034Z,3.40
2022-10-01T06:11:45.081Z,5.53
2022-10-01T06:14:11.712Z,3.50
2022-10-01T06:16:38.392Z,5.33
2022-10-01T06:19:05.158Z,3.87
2022-10-01T06:21:32.073Z,4.23
2022-10-01T06:23:59.043Z,5.67
2022-10-01T06:26:25.814Z,5.10
2022-10-01T06:28:52.658Z,3.23
2022-10-01T06:31:19.789Z,6.40
2022-10-01T06:33:46.592Z,3.33
2022-10-01T06:36:13.310Z,3.90
2022-10-01T06:38:39.902Z,3.27
2022-10-01T06:41:06.780Z,4.23
2022-10-01T06:43:33.733Z,3.67
2022-10-01T06:46:05.053Z,4.47
2022-10-01T06:48:35.384Z,2.77
2022-10-01T06:51:02.674Z,3.97
2022-10-01T06:53:29.476Z,3.70
2022-10-01T06:55:56.580Z,4.47
2022-10-01T06:58:26.232Z,4.23
2022-10-01T07:00:58.764Z,3.43
2022-10-01T07:03:25.731Z,3.93
2022-10-01T07:05:52.521Z,4.17
2022-10-01T07:08:19.386Z,5.30
2022-10-01T07:10:46.125Z,2.93
2022-10-01T07:13:15.997Z,3.97
2022-10-01T07:15:42.925Z,4.40
2022-10-01T07:18:10.067Z,3.60
2022-10-01T07:20:39.779Z,3.30
2022-10-01T07:23:14.100Z,5.57
2022-10-01T07:25:41.886Z,5.00
2022-10-01T07:28:16.202Z,3.97
2022-10-01T07:30:47.268Z,7.73
2022-10-01T07:33:17.691Z,6.37
2022-10-01T07:35:44.351Z,4.27
2022-10-01T07:38:10.988Z,6.93
2022-10-01T07:40:37.899Z,3.00
2022-10-01T07:43:04.912Z,4.23
2022-10-01T07:45:31.623Z,3.73
2022-10-01T07:48:00.549Z,3.43
2022-10-01T07:50:30.428Z,3.93
2022-10-01T07:52:58.707Z,3.50
2022-10-01T07:55:27.757Z,4.97
2022-10-01T07:58:01.352Z,5.30
2022-10-01T08:00:29.369Z,5.60
2022-10-01T08:02:56.312Z,4.23
2022-10-01T08:05:29.191Z,4.13
2022-10-01T08:08:04.823Z,3.87
2022-10-01T08:10:36.497Z,4.13
2022-10-01T08:13:14.635Z,3.87
2022-10-01T08:15:43.680Z,6.50
2022-10-01T08:18:11.300Z,7.50
2022-10-01T08:20:39.561Z,3.73
2022-10-01T08:23:08.903Z,3.23
2022-10-01T08:25:35.868Z,4.40
2022-10-01T08:28:03.268Z,3.90
2022-10-01T08:30:30.680Z,2.73
2022-10-01T08:32:59.101Z,2.47
2022-10-01T08:35:27.136Z,3.83
2022-10-01T08:37:56.046Z,3.80
2022-10-01T08:40:23.814Z,2.23
2022-10-01T08:43:01.310Z,2.27
2022-10-01T08:45:40.024Z,2.70
2022-10-01T08:48:22.123Z,2.93
2022-10-01T08:51:06.544Z,3.83
2022-10-01T08:53:40.892Z,2.73
2022-10-01T08:56:27.724Z,2.47
2022-10-01T08:59:00.279Z,2.67
2022-10-01T09:01:28.417Z,2.40
2022-10-01T09:03:55.746Z,2.50
2022-10-01T09:06:27.836Z,1.77
2022-10-01T09:09:21.828Z,2.40
2022-10-01T09:12:29.000Z,2.10
2022-10-01T09:15:24.593Z,1.77
2022-10-01T09:18:11.195Z,1.80
2022-10-01T09:20:43.918Z,2.33
2022-10-01T09:23:18.385Z,2.23
2022-10-01T09:25:50.231Z,2.00
2022-10-01T09:28:22.149Z,2.07
2022-10-01T09:31:18.182Z,2.03
2022-10-01T09:33:55.128Z,2.23
2022-10-01T09:36:38.309Z,2.37
2022-10-01T09:39:10.836Z,3.33
2022-10-01T09:41:37.598Z,3.33
2022-10-01T09:44:05.258Z,4.13
2022-10-01T09:46:31.910Z,1.97
2022-10-01T09:49:10.275Z,3.47
2022-10-01T09:51:46.161Z,3.00
2022-10-01T09:54:33.573Z,5.57
2022-10-01T09:57:08.840Z,2.00
2022-10-01T09:59:47.167Z,2.50
2022-10-01T10:02:25.575Z,2.87
2022-10-01T10:05:01.634Z,2.90
2022-10-01T10:07:29.723Z,3.20
2022-10-01T10:09:56.296Z,2.87
2022-10-01T10:12:29.528Z,3.07
2022-10-01T10:14:58.832Z,3.90
2022-10-01T10:17:25.538Z,3.47
2022-10-01T10:19:52.920Z,3.37
2022-10-01T10:22:24.798Z,2.97
2022-10-01T10:24:53.538Z,3.90
2022-10-01T10:27:29.228Z,3.17
2022-10-01T10:30:15.229Z,5.83
2022-10-01T10:32:44.090Z,3.87
2022-10-01T10:35:17.193Z,3.33
2022-10-01T10:37:48.434Z,2.90
2022-10-01T10:40:23.586Z,4.27
2022-10-01T10:42:55.236Z,5.70
2022-10-01T10:45:43.792Z,5.40
2022-10-01T10:48:18.113Z,2.77
2022-10-01T10:50:46.650Z,4.60
2022-10-01T10:53:25.871Z,4.63
2022-10-01T10:56:04.010Z,4.73
2022-10-01T10:58:40.308Z,3.03
2022-10-01T11:01:12.141Z,4.93
2022-10-01T11:03:44.835Z,3.90
2022-10-01T11:06:14.733Z,3.57
2022-10-01T11:08:43.093Z,6.30
2022-10-01T11:11:47.592Z,8.83
2022-10-01T11:14:32.239Z,4.23
2022-10-01T11:17:13.984Z,4.90
2022-10-01T11:19:49.864Z,4.17
2022-10-01T11:22:25.201Z,7.03
2022-10-01T11:25:18.118Z,6.53
2022-10-01T11:27:50.568Z,6.57
2022-10-01T11:30:29.913Z,6.67
2022-10-01T11:33:18.277Z,4.97
2022-10-01T11:35:54.470Z,7.13
2022-10-01T11:38:39.881Z,7.43
2022-10-01T11:41:21.622Z,4.73
2022-10-01T11:43:59.452Z,7.77
2022-10-01T11:46:50.165Z,9.33
2022-10-01T11:49:47.851Z,7.50
2022-10-01T11:52:20.424Z,7.83
2022-10-01T11:54:56.423Z,9.03
2022-10-01T11:57:42.805Z,7.77
2022-10-01T12:00:13.149Z,7.03
2022-10-01T12:02:57.893Z,5.97
2022-10-01T12:05:31.168Z,9.83
2022-10-01T12:08:29.421Z,9.10
2022-10-01T12:11:04.500Z,6.93
2022-10-01T12:13:37.693Z,8.90
2022-10-01T12:16:14.380Z,7.23
2022-10-01T12:18:51.865Z,7.53
2022-10-01T12:21:45.705Z,8.20
2022-10-01T12:24:16.213Z,7.87
2022-10-01T12:27:01.578Z,9.27
2022-10-01T12:29:53.297Z,7.03
2022-10-01T12:32:26.862Z,5.87
2022-10-01T12:35:05.658Z,6.57
2022-10-01T12:37:55.629Z,7.37
2022-10-01T12:40:27.888Z,7.27
2022-10-01T12:43:16.106Z,7.33
2022-10-01T12:46:05.799Z,7.87
2022-10-01T12:48:59.607Z,6.00
2022-10-01T12:51:40.824Z,7.17
2022-10-01T12:54:41.696Z,7.27
2022-10-01T12:57:25.630Z,5.33
2022-10-01T13:00:12.198Z,6.13
2022-10-01T13:03:00.920Z,4.83
2022-10-01T13:05:38.705Z,4.80
2022-10-01T13:08:47.461Z,5.37
2022-10-01T13:11:20.682Z,4.30
2022-10-01T13:13:52.310Z,5.70
2022-10-01T13:16:35.838Z,4.80
2022-10-01T13:19:17.765Z,4.47
2022-10-01T13:22:16.194Z,6.17
2022-10-01T13:24:48.344Z,5.57
2022-10-01T13:27:41.605Z,5.90
2022-10-01T13:30:18.338Z,4.43
2022-10-01T13:33:00.951Z,3.90
2022-10-01T13:35:36.294Z,2.77
2022-10-01T13:38:29.130Z,7.73
2022-10-01T13:41:04.651Z,5.70
2022-10-01T13:43:33.657Z,3.37
2022-10-01T13:46:09.579Z,5.17
2022-10-01T13:48:45.179Z,5.40
2022-10-01T13:51:13.897Z,4.97
2022-10-01T13:53:43.688Z,4.70
2022-10-01T13:56:14.257Z,6.60
2022-10-01T13:58:45.475Z,5.80
2022-10-01T14:01:24.027Z,4.50
2022-10-01T14:04:19.955Z,4.30
2022-10-01T14:07:16.972Z,5.13
2022-10-01T14:09:48.525Z,5.47
2022-10-01T14:12:39.732Z,6.47
2022-10-01T14:15:49.044Z,5.87
2022-10-01T14:18:22.183Z,4.27
2022-10-01T14:21:28.588Z,4.43
2022-10-01T14:24:20.692Z,4.03
2022-10-01T14:27:07.644Z,7.90
2022-10-01T14:30:01.148Z,5.53
2022-10-01T14:32:50.881Z,3.70
2022-10-01T14:35:36.383Z,3.87
2022-10-01T14:38:19.726Z,5.13
2022-10-01T14:40:49.620Z,3.93
2022-10-01T14:43:21.213Z,4.40
2022-10-01T14:45:59.678Z,5.10
2022-10-01T14:48:31.170Z,24.60
2022-10-01T14:51:00.632Z,12.33
2022-10-01T14:53:29.855Z,6.10
2022-10-01T14:55:59.719Z,4.23
2022-10-01T14:58:40.987Z,6.53
2022-10-01T15:01:14.067Z,4.50
2022-10-01T15:03:43.492Z,5.80
2022-10-01T15:06:16.533Z,5.60
2022-10-01T15:08:49.761Z,5.53
2022-10-01T15:11:28.545Z,5.37
2022-10-01T15:14:02.595Z,4.03
2022-10-01T15:16:29.884Z,3.60
2022-10-01T15:19:03.514Z,4.13
2022-10-01T15:21:35.626Z,4.63
2022-10-01T15:24:04.499Z,5.70
2022-10-01T15:26:32.615Z,4.97
2022-10-01T15:29:05.641Z,4.33
2022-10-01T15:31:33.649Z,5.00
2022-10-01T15:34:03.168Z,5.37
2022-10-01T15:36:30.031Z,7.10
2022-10-01T15:38:56.951Z,7.53
2022-10-01T15:41:33.327Z,4.17
2022-10-01T15:44:05.324Z,4.73
2022-10-01T15:46:34.802Z,3.90
2022-10-01T15:49:14.621Z,5.70
2022-10-01T15:52:09.593Z,8.13
2022-10-01T15:54:37.534Z,4.20
2022-10-01T15:57:06.018Z,6.47
2022-10-01T15:59:34.189Z,6.60
2022-10-01T16:02:01.123Z,5.97
2022-10-01T16:04:27.860Z,8.07
2022-10-01T16:06:54.440Z,6.80
2022-10-01T16:09:27.535Z,6.10
2022-10-01T16:12:09.254Z,6.30
2022-10-01T16:14:42.656Z,5.67
2022-10-01T16:17:18.400Z,6.97
2022-10-01T16:19:46.254Z,4.80
2022-10-01T16:22:25.756Z,8.37
2022-10-01T16:24:55.133Z,6.20
2022-10-01T16:27:32.730Z,10.40
2022-10-01T16:30:11.842Z,7.97
2022-10-01T16:32:38.417Z,7.57
2022-10-01T16:35:35.837Z,8.43
2022-10-01T16:38:06.612Z,7.00
2022-10-01T16:40:38.583Z,9.77
2022-10-01T16:43:07.476Z,8.30
2022-10-01T16:45:37.174Z,10.10
2022-10-01T16:48:12.925Z,7.80
2022-10-01T16:50:39.851Z,9.73
2022-10-01T16:53:11.232Z,7.50
2022-10-01T16:55:37.943Z,9.80
2022-10-01T16:58:05.890Z,4.10
2022-10-01T17:00:33.062Z,8.77
2022-10-01T17:02:59.938Z,7.80
2022-10-01T17:05:31.821Z,5.87
2022-10-01T17:08:00.939Z,5.63
2022-10-01T17:10:35.738Z,9.00
2022-10-01T17:13:03.555Z,8.93
2022-10-01T17:15:31.194Z,8.80
2022-10-01T17:17:59.093Z,9.20
2022-10-01T17:20:28.818Z,10.00
2022-10-01T17:22:56.973Z,6.17
2022-10-01T17:25:31.870Z,6.77
2022-10-01T17:27:59.589Z,10.23
2022-10-01T17:30:29.037Z,8.77
2022-10-01T17:32:56.808Z,8.73
2022-10-01T17:35:23.636Z,12.80
2022-10-01T17:37:50.264Z,8.33
2022-10-01T17:40:17.048Z,9.93
2022-10-01T17:42:43.708Z,8.73
2022-10-01T17:45:12.204Z,9.13
2022-10-01T17:47:46.808Z,11.67
2022-10-01T17:50:14.575Z,11.67
2022-10-01T17:52:41.697Z,11.43
2022-10-01T17:55:08.902Z,11.63
2022-10-01T17:57:35.514Z,7.50
2022-10-01T18:00:02.676Z,8.97
2022-10-01T18:02:43.097Z,10.37
2022-10-01T18:05:14.364Z,11.00
2022-10-01T18:07:41.562Z,13.77
2022-10-01T18:10:11.198Z,10.73
2022-10-01T18:12:37.776Z,13.73
2022-10-01T18:15:05.053Z,15.57
2022-10-01T18:17:33.069Z,14.93
2022-10-01T18:19:59.855Z,10.23
2022-10-01T18:22:27.236Z,11.87
2022-10-01T18:24:54.361Z,8.37
2022-10-01T18:27:21.212Z,12.70
2022-10-01T18:29:47.857Z,8.40
2022-10-01T18:32:19.843Z,9.13
2022-10-01T18:34:59.880Z,13.23
2022-10-01T18:37:40.091Z,11.17
2022-10-01T18:40:18.232Z,11.20
2022-10-01T18:43:17.316Z,13.40
2022-10-01T18:45:59.870Z,10.57
2022-10-01T18:48:53.766Z,11.87
2022-10-01T18:51:36.419Z,12.20
2022-10-01T18:54:36.848Z,10.97
2022-10-01T18:57:22.941Z,13.20
2022-10-01T19:00:23.389Z,8.20
2022-10-01T19:03:17.809Z,8.57
2022-10-01T19:06:33.514Z,10.27
2022-10-01T19:09:03.206Z,7.40
2022-10-01T19:12:10.364Z,13.27
2022-10-01T19:14:57.720Z,12.23
2022-10-01T19:17:42.416Z,11.23
2022-10-01T19:20:28.396Z,11.40
2022-10-01T19:23:06.601Z,8.50
2022-10-01T19:25:45.200Z,10.00
2022-10-01T19:28:33.497Z,9.07
2022-10-01T19:31:12.620Z,10.33
2022-10-01T19:33:55.353Z,9.77
2022-10-01T19:36:30.414Z,10.83
2022-10-01T19:39:04.259Z,14.10
2022-10-01T19:42:09.826Z,7.23
2022-10-01T19:44:54.167Z,14.70
2022-10-01T19:47:40.797Z,9.70
2022-10-01T19:50:24.932Z,9.80
2022-10-01T19:52:54.552Z,10.40
2022-10-01T19:55:23.501Z,10.97
2022-10-01T19:57:50.604Z,9.53
2022-10-01T20:00:21.551Z,7.20
2022-10-01T20:03:04.571Z,9.37
2022-10-01T20:05:43.487Z,7.27
2022-10-01T20:08:24.894Z,9.20
2022-10-01T20:11:04.805Z,8.67
2022-10-01T20:13:38.474Z,9.70
2022-10-01T20:16:11.451Z,6.30
2022-10-01T20:18:56.991Z,9.07
2022-10-01T20:21:51.843Z,10.73
2022-10-01T20:24:28.789Z,7.70
2022-10-01T20:27:11.547Z,7.07
2022-10-01T20:29:59.529Z,10.97
2022-10-01T20:32:48.222Z,10.00
2022-10-01T20:35:31.535Z,9.63
2022-10-01T20:38:15.662Z,9.80
2022-10-01T20:40:49.681Z,7.73
2022-10-01T20:43:21.566Z,6.20
2022-10-01T20:45:51.682Z,8.70
2022-10-01T20:48:23.991Z,7.90
2022-10-01T20:51:00.628Z,10.20
2022-10-01T20:53:38.547Z,7.07
2022-10-01T20:56:15.674Z,8.27
2022-10-01T20:58:50.537Z,6.93
2022-10-01T21:01:21.278Z,7.40
2022-10-01T21:04:03.475Z,9.87
2022-10-01T21:06:54.911Z,8.87
2022-10-01T21:09:32.951Z,8.13
2022-10-01T21:12:08.902Z,9.17
2022-10-01T21:14:46.138Z,8.17
2022-10-01T21:17:22.008Z,6.03
2022-10-01T21:20:04.483Z,8.20
2022-10-01T21:22:55.923Z,9.60
2022-10-01T21:25:48.821Z,6.63
2022-10-01T21:28:42.161Z,6.67
2022-10-01T21:31:16.582Z,6.77
2022-10-01T21:34:00.758Z,6.00
2022-10-01T21:36:38.377Z,8.50
2022-10-01T21:39:31.439Z,9.83
2022-10-01T21:42:12.662Z,11.50
2022-10-01T21:44:51.325Z,6.90
2022-10-01T21:47:47.844Z,10.07
2022-10-01T21:50:25.666Z,14.07
2022-10-01T21:53:19.839Z,10.83
2022-10-01T21:55:49.541Z,6.97
2022-10-01T21:58:16.104Z,8.33
2022-10-01T22:00:48.440Z,9.70
2022-10-01T22:03:15.017Z,6.13
2022-10-01T22:05:50.589Z,9.30
2022-10-01T22:08:20.170Z,9.17
2022-10-01T22:10:50.158Z,10.00
2022-10-01T22:13:29.589Z,10.33
2022-10-01T22:16:02.101Z,12.73
2022-10-01T22:18:43.201Z,15.40
2022-10-01T22:21:13.696Z,8.00
2022-10-01T22:23:46.760Z,7.90
2022-10-01T22:26:18.083Z,9.67
2022-10-01T22:28:50.417Z,14.57
2022-10-01T22:31:29.461Z,11.80
2022-10-01T22:34:02.843Z,7.87
2022-10-01T22:36:36.117Z,10.10
2022-10-01T22:39:17.483Z,9.67
2022-10-01T22:41:56.227Z,9.80
2022-10-01T22:44:23.772Z,15.37
2022-10-01T22:47:07.461Z,12.30
2022-10-01T22:49:42.911Z,9.73
2022-10-01T22:52:31.121Z,10.87
2022-10-01T22:55:24.620Z,10.93
2022-10-01T22:58:12.933Z,8.57
2022-10-01T23:00:57.066Z,9.27
2022-10-01T23:03:40.783Z,12.07
2022-10-01T23:06:18.721Z,9.57
2022-10-01T23:09:08.063Z,9.63
2022-10-01T23:11:42.440Z,8.77
2022-10-01T23:14:34.880Z,9.57
2022-10-01T23:17:36.142Z,8.57
2022-10-01T23:20:08.624Z,12.53
2022-10-01T23:22:53.896Z,9.57
2022-10-01T23:25:35.178Z,11.43
2022-10-01T23:28:22.288Z,9.37
2022-10-01T23:30:58.347Z,9.00
2022-10-01T23:33:33.285Z,15.60
2022-10-01T23:36:13.947Z,12.23
2022-10-01T23:39:17.561Z,11.63
2022-10-01T23:41:53.191Z,11.10
2022-10-01T23:44:59.147Z,12.40
2022-10-01T23:47:38.057Z,12.90
2022-10-01T23:50:07.514Z,15.70
2022-10-01T23:52:45.177Z,11.33
2022-10-01T23:55:42.888Z,13.70
2022-10-01T23:58:12.862Z,12.97
